createdAt,value
2018-10-19T00:00:18.033Z,85.1
2018-10-19T00:01:18.240Z,85.38
2018-10-19T00:02:17.987Z,85.44
2018-10-19T00:03:18.507Z,85.29
2018-10-19T00:04:17.998Z,85.44
2018-10-19T00:05:18.524Z,85.15
2018-10-19T00:06:18.258Z,85.15
2018-10-19T00:07:18.262Z,84.96
2018-10-19T00:08:18.268Z,85.05
2018-10-19T00:09:18.426Z,85.25
2018-10-19T00:10:18.280Z,85.63
2018-10-19T00:11:18.440Z,85.44
2018-10-19T00:12:18.288Z,85.25
2018-10-19T00:13:18.291Z,85.82
2018-10-19T00:14:18.304Z,85.91
2018-10-19T00:15:18.477Z,85.34
2018-10-19T00:16:18.305Z,86.01
2018-10-19T00:17:18.475Z,85.91
2018-10-19T00:18:18.314Z,85.34
2018-10-19T00:19:18.324Z,85.91
2018-10-19T00:20:18.379Z,85.82
2018-10-19T00:21:18.072Z,85.91
2018-10-19T00:22:18.339Z,85.25
2018-10-19T00:23:18.334Z,85.44
2018-10-19T00:24:18.330Z,85.44
2018-10-19T00:25:18.331Z,85.44
2018-10-19T00:26:18.085Z,85.53
2018-10-19T00:27:18.460Z,85.05
2018-10-19T00:28:18.093Z,85.44
2018-10-19T00:29:18.504Z,85.25
2018-10-19T00:30:18.110Z,85.82
2018-10-19T00:31:18.367Z,85.91
2018-10-19T00:32:18.375Z,85.82
2018-10-19T00:33:18.701Z,86.01
2018-10-19T00:34:18.384Z,85.72
2018-10-19T00:35:18.385Z,86.1
2018-10-19T00:36:18.390Z,86.73
2018-10-19T00:37:18.188Z,86.96
2018-10-19T00:38:18.400Z,86.54
2018-10-19T00:39:18.518Z,87.11
2018-10-19T00:40:18.153Z,86.73
2018-10-19T00:41:18.155Z,87.44
2018-10-19T00:42:18.414Z,87.11
2018-10-19T00:43:18.417Z,87.21
2018-10-19T00:44:18.429Z,87.59
2018-10-19T00:45:18.600Z,87.59
2018-10-19T00:46:18.433Z,87.3
2018-10-19T00:47:18.184Z,87.21
2018-10-19T00:48:18.187Z,87.4
2018-10-19T00:49:18.339Z,87.02
2018-10-19T00:50:18.446Z,87.21
2018-10-19T00:51:18.200Z,87.49
2018-10-19T00:52:18.458Z,87.21
2018-10-19T00:53:18.794Z,87.21
2018-10-19T00:54:18.519Z,87.3
2018-10-19T00:55:18.466Z,87.21
2018-10-19T00:56:18.478Z,87.02
2018-10-19T00:57:18.601Z,87.21
2018-10-19T00:58:18.484Z,87.49
2018-10-19T00:59:18.491Z,87.3
2018-10-19T01:00:18.485Z,87.4
2018-10-19T01:01:18.492Z,87.4
2018-10-19T01:02:18.493Z,87.4
2018-10-19T01:03:18.685Z,87.3
2018-10-19T01:04:18.553Z,87.21
2018-10-19T01:05:18.715Z,87.4
2018-10-19T01:06:18.510Z,87.11
2018-10-19T01:07:18.517Z,87.21
2018-10-19T01:08:18.517Z,87.3
2018-10-19T01:09:18.522Z,87.11
2018-10-19T01:10:18.524Z,87.4
2018-10-19T01:11:18.710Z,87.4
2018-10-19T01:12:18.535Z,87.11
2018-10-19T01:13:18.540Z,87.73
2018-10-19T01:14:18.544Z,87.3
2018-10-19T01:15:18.334Z,87.49
2018-10-19T01:16:18.544Z,87.4
2018-10-19T01:17:18.686Z,87.49
2018-10-19T01:18:18.548Z,87.4
2018-10-19T01:19:18.604Z,87.4
2018-10-19T01:20:18.558Z,87.11
2018-10-19T01:21:18.560Z,87.68
2018-10-19T01:22:18.566Z,87.68
2018-10-19T01:23:18.757Z,88.07
2018-10-19T01:24:18.584Z,87.59
2018-10-19T01:25:18.587Z,87.59
2018-10-19T01:26:18.595Z,88.16
2018-10-19T01:27:18.710Z,87.97
2018-10-19T01:28:18.599Z,87.59
2018-10-19T01:29:18.609Z,88.16
2018-10-19T01:30:18.606Z,87.3
2018-10-19T01:31:18.367Z,87.49
2018-10-19T01:32:18.622Z,87.59
2018-10-19T01:33:18.845Z,87.68
2018-10-19T01:34:18.622Z,87.68
2018-10-19T01:35:18.802Z,87.68
2018-10-19T01:36:18.629Z,87.3
2018-10-19T01:37:18.632Z,87.97
2018-10-19T01:38:18.434Z,87.97
2018-10-19T01:39:18.387Z,87.78
2018-10-19T01:40:18.643Z,87.87
2018-10-19T01:41:18.857Z,87.87
2018-10-19T01:42:18.404Z,87.87
2018-10-19T01:43:18.659Z,87.87
2018-10-19T01:44:18.663Z,87.97
2018-10-19T01:45:18.724Z,87.97
2018-10-19T01:46:18.670Z,87.97
2018-10-19T01:47:18.676Z,87.68
2018-10-19T01:48:18.668Z,87.78
2018-10-19T01:49:18.681Z,88.16
2018-10-19T01:50:18.678Z,87.49
2018-10-19T01:51:18.932Z,87.21
2018-10-19T01:52:18.686Z,87.02
2018-10-19T01:53:18.983Z,87.59
2018-10-19T01:54:18.692Z,87.78
2018-10-19T01:55:18.708Z,87.78
2018-10-19T01:56:18.711Z,87.74
2018-10-19T01:57:18.809Z,87.68
2018-10-19T01:58:18.715Z,87.78
2018-10-19T01:59:18.915Z,87.21
2018-10-19T02:00:18.716Z,87.45
2018-10-19T02:01:18.470Z,87.78
2018-10-19T02:02:18.722Z,87.35
2018-10-19T02:03:18.895Z,87.4
2018-10-19T02:04:18.728Z,87.49
2018-10-19T02:05:18.740Z,87.74
2018-10-19T02:06:18.739Z,87.26
2018-10-19T02:07:18.492Z,87.74
2018-10-19T02:08:18.754Z,87.83
2018-10-19T02:09:18.548Z,87.78
2018-10-19T02:10:18.758Z,88.31
2018-10-19T02:11:18.763Z,87.97
2018-10-19T02:12:18.508Z,87.93
2018-10-19T02:13:18.764Z,88.78
2018-10-19T02:14:18.774Z,88.5
2018-10-19T02:15:18.881Z,88.59
2018-10-19T02:16:18.782Z,88.69
2018-10-19T02:17:18.782Z,88.69
2018-10-19T02:18:18.785Z,88.59
2018-10-19T02:19:18.787Z,88.59
2018-10-19T02:20:18.798Z,88.78
2018-10-19T02:21:18.552Z,88.59
2018-10-19T02:22:18.544Z,88.59
2018-10-19T02:23:18.948Z,89.07
2018-10-19T02:24:18.555Z,89.07
2018-10-19T02:25:18.558Z,88.88
2018-10-19T02:26:18.559Z,88.69
2018-10-19T02:27:19.071Z,88.69
2018-10-19T02:28:18.818Z,89.17
2018-10-19T02:29:18.827Z,89.93
2018-10-19T02:30:18.841Z,89.54
2018-10-19T02:31:18.836Z,89.54
2018-10-19T02:32:18.839Z,89.74
2018-10-19T02:33:19.091Z,89.74
2018-10-19T02:34:18.845Z,89.54
2018-10-19T02:35:19.053Z,89.54
2018-10-19T02:36:18.856Z,90.12
2018-10-19T02:37:18.623Z,90.03
2018-10-19T02:38:18.867Z,89.93
2018-10-19T02:39:19.103Z,90.12
2018-10-19T02:40:18.863Z,90.12
2018-10-19T02:41:18.995Z,90.12
2018-10-19T02:42:18.870Z,90.12
2018-10-19T02:43:18.874Z,90.69
2018-10-19T02:44:18.878Z,90.12
2018-10-19T02:45:19.218Z,89.93
2018-10-19T02:46:18.632Z,90.69
2018-10-19T02:47:19.069Z,90.59
2018-10-19T02:48:18.892Z,90.69
2018-10-19T02:49:18.896Z,90.31
2018-10-19T02:50:18.906Z,90.69
2018-10-19T02:51:18.805Z,90.5
2018-10-19T02:52:18.904Z,90.69
2018-10-19T02:53:18.732Z,90.59
2018-10-19T02:54:18.924Z,90.41
2018-10-19T02:55:18.923Z,90.69
2018-10-19T02:56:18.928Z,90.69
2018-10-19T02:57:19.157Z,90.79
2018-10-19T02:58:18.934Z,90.12
2018-10-19T02:59:19.060Z,90.79
2018-10-19T03:00:18.987Z,90.69
2018-10-19T03:01:18.949Z,90.31
2018-10-19T03:02:18.946Z,90.12
2018-10-19T03:03:18.853Z,90.5
2018-10-19T03:04:18.955Z,90.31
2018-10-19T03:05:19.162Z,90.79
2018-10-19T03:06:18.963Z,91.13
2018-10-19T03:07:18.961Z,91.03
2018-10-19T03:08:18.972Z,91.41
2018-10-19T03:09:18.908Z,91.46
2018-10-19T03:10:18.982Z,91.5
2018-10-19T03:11:19.269Z,90.74
2018-10-19T03:12:18.978Z,91.36
2018-10-19T03:13:18.999Z,91.27
2018-10-19T03:14:18.736Z,91.03
2018-10-19T03:15:18.908Z,90.74
2018-10-19T03:16:18.996Z,90.98
2018-10-19T03:17:19.131Z,90.93
2018-10-19T03:18:19.002Z,90.74
2018-10-19T03:19:19.009Z,90.45
2018-10-19T03:20:18.804Z,91.46
2018-10-19T03:21:19.220Z,91.13
2018-10-19T03:22:19.017Z,91.03
2018-10-19T03:23:19.124Z,91.5
2018-10-19T03:24:19.032Z,91.31
2018-10-19T03:25:18.775Z,91.07
2018-10-19T03:26:19.040Z,91.22
2018-10-19T03:27:19.427Z,91.31
2018-10-19T03:28:19.047Z,91.36
2018-10-19T03:29:18.827Z,91.36
2018-10-19T03:30:19.035Z,91.36
2018-10-19T03:31:18.912Z,91.27
2018-10-19T03:32:19.043Z,91.03
2018-10-19T03:33:19.428Z,90.93
2018-10-19T03:34:19.047Z,91.03
2018-10-19T03:35:19.251Z,91.03
2018-10-19T03:36:19.052Z,91.22
2018-10-19T03:37:19.113Z,91.69
2018-10-19T03:38:19.062Z,91.22
2018-10-19T03:39:19.208Z,91.79
2018-10-19T03:40:19.070Z,91.6
2018-10-19T03:41:19.366Z,91.98
2018-10-19T03:42:19.079Z,91.79
2018-10-19T03:43:19.081Z,92.17
2018-10-19T03:44:19.088Z,91.88
2018-10-19T03:45:19.233Z,92.17
2018-10-19T03:46:19.097Z,92.17
2018-10-19T03:47:19.376Z,92.17
2018-10-19T03:48:19.097Z,92.08
2018-10-19T03:49:19.443Z,91.98
2018-10-19T03:50:19.108Z,91.98
2018-10-19T03:51:19.399Z,92.08
2018-10-19T03:52:19.107Z,92.27
2018-10-19T03:53:19.498Z,92.08
2018-10-19T03:54:19.175Z,92.17
2018-10-19T03:55:19.126Z,91.88
2018-10-19T03:56:19.130Z,92.46
2018-10-19T03:57:18.926Z,92.46
2018-10-19T03:58:19.135Z,92.27
2018-10-19T03:59:19.343Z,92.74
2018-10-19T04:00:19.156Z,92.46
2018-10-19T04:01:18.889Z,92.17
2018-10-19T04:02:19.143Z,92.55
2018-10-19T04:03:19.073Z,91.98
2018-10-19T04:04:19.150Z,92.27
2018-10-19T04:05:19.327Z,92.84
2018-10-19T04:06:19.163Z,92.84
2018-10-19T04:07:19.164Z,92.55
2018-10-19T04:08:19.170Z,92.74
2018-10-19T04:09:19.467Z,92.74
2018-10-19T04:10:19.181Z,92.55
2018-10-19T04:11:19.316Z,92.36
2018-10-19T04:12:19.184Z,91.98
2018-10-19T04:13:19.184Z,92.27
2018-10-19T04:14:19.934Z,92.17
2018-10-19T04:15:19.463Z,92.27
2018-10-19T04:16:18.943Z,92.08
2018-10-19T04:17:19.413Z,91.88
2018-10-19T04:18:19.200Z,91.98
2018-10-19T04:19:19.207Z,92.27
2018-10-19T04:20:18.954Z,92.08
2018-10-19T04:21:19.510Z,92.17
2018-10-19T04:22:19.212Z,91.88
2018-10-19T04:23:19.502Z,92.17
2018-10-19T04:24:19.227Z,92.08
2018-10-19T04:25:19.223Z,91.5
2018-10-19T04:26:19.224Z,91.98
2018-10-19T04:27:19.652Z,92.27
2018-10-19T04:28:18.980Z,91.5
2018-10-19T04:29:18.985Z,91.5
2018-10-19T04:30:19.235Z,91.5
2018-10-19T04:31:19.243Z,91.5
2018-10-19T04:32:19.242Z,91.6
2018-10-19T04:33:19.479Z,91.03
2018-10-19T04:34:19.000Z,91.5
2018-10-19T04:35:19.437Z,91.5
2018-10-19T04:36:19.261Z,91.69
2018-10-19T04:37:19.036Z,91.79
2018-10-19T04:38:19.046Z,91.79
2018-10-19T04:39:19.146Z,91.98
2018-10-19T04:40:19.274Z,92.46
2018-10-19T04:41:19.603Z,91.88
2018-10-19T04:42:19.171Z,91.98
2018-10-19T04:43:19.282Z,92.08
2018-10-19T04:44:19.030Z,91.98
2018-10-19T04:45:19.447Z,92.08
2018-10-19T04:46:19.304Z,92.17
2018-10-19T04:47:19.315Z,92.27
2018-10-19T04:48:19.301Z,92.55
2018-10-19T04:49:19.047Z,92.55
2018-10-19T04:50:19.305Z,92.84
2018-10-19T04:51:19.439Z,92.74
2018-10-19T04:52:19.348Z,93.03
2018-10-19T04:53:19.560Z,92.65
2018-10-19T04:54:19.313Z,92.93
2018-10-19T04:55:19.075Z,92.84
2018-10-19T04:56:19.334Z,92.65
2018-10-19T04:57:19.293Z,93.12
2018-10-19T04:58:19.386Z,92.93
2018-10-19T04:59:19.456Z,92.74
2018-10-19T05:00:19.332Z,92.55
2018-10-19T05:01:19.337Z,92.74
2018-10-19T05:02:19.116Z,92.55
2018-10-19T05:03:19.508Z,92.74
2018-10-19T05:04:19.344Z,92.36
2018-10-19T05:05:19.746Z,92.5
2018-10-19T05:06:19.466Z,92.79
2018-10-19T05:07:19.105Z,93.46
2018-10-19T05:08:19.672Z,93.65
2018-10-19T05:09:19.361Z,93.74
2018-10-19T05:10:19.368Z,93.93
2018-10-19T05:11:19.626Z,93.93
2018-10-19T05:12:19.415Z,94.03
2018-10-19T05:13:19.428Z,93.93
2018-10-19T05:14:19.740Z,93.55
2018-10-19T05:15:19.375Z,94.08
2018-10-19T05:16:19.398Z,94.13
2018-10-19T05:17:19.585Z,93.88
2018-10-19T05:18:19.394Z,94.03
2018-10-19T05:19:19.389Z,94.08
2018-10-19T05:20:19.549Z,93.93
2018-10-19T05:21:19.551Z,93.98
2018-10-19T05:22:19.393Z,94.13
2018-10-19T05:23:19.570Z,94.79
2018-10-19T05:24:19.401Z,94.08
2018-10-19T05:25:19.157Z,93.93
2018-10-19T05:26:19.537Z,94.41
2018-10-19T05:27:19.418Z,94.17
2018-10-19T05:28:19.419Z,93.84
2018-10-19T05:29:19.582Z,93.88
2018-10-19T05:30:19.523Z,93.6
2018-10-19T05:31:19.434Z,93.6
2018-10-19T05:32:19.181Z,93.88
2018-10-19T05:33:19.440Z,93.7
2018-10-19T05:34:19.432Z,93.88
2018-10-19T05:35:19.333Z,93.88
2018-10-19T05:36:19.439Z,93.32
2018-10-19T05:37:19.188Z,93.6
2018-10-19T05:38:19.667Z,93.32
2018-10-19T05:39:19.449Z,93.12
2018-10-19T05:40:19.503Z,93.03
2018-10-19T05:41:19.590Z,93.51
2018-10-19T05:42:19.479Z,93.41
2018-10-19T05:43:19.491Z,93.12
2018-10-19T05:44:19.599Z,93.03
2018-10-19T05:45:19.215Z,93.12
2018-10-19T05:46:19.470Z,93.03
2018-10-19T05:47:19.579Z,92.74
2018-10-19T05:48:19.478Z,92.93
2018-10-19T05:49:19.483Z,93.03
2018-10-19T05:50:19.660Z,93.12
2018-10-19T05:51:19.491Z,92.55
2018-10-19T05:52:19.605Z,92.84
2018-10-19T05:53:19.681Z,92.93
2018-10-19T05:54:19.517Z,93.12
2018-10-19T05:55:19.549Z,93.41
2018-10-19T05:56:19.650Z,93.32
2018-10-19T05:57:19.496Z,92.84
2018-10-19T05:58:19.506Z,92.74
2018-10-19T05:59:19.680Z,92.55
2018-10-19T06:00:19.507Z,92.74
2018-10-19T06:01:19.512Z,92.65
2018-10-19T06:02:19.414Z,92.65
2018-10-19T06:03:19.524Z,92.74
2018-10-19T06:04:19.523Z,92.55
2018-10-19T06:05:19.640Z,93.12
2018-10-19T06:06:19.538Z,92.65
2018-10-19T06:07:19.282Z,92.65
2018-10-19T06:08:19.757Z,92.84
2018-10-19T06:09:19.548Z,92.93
2018-10-19T06:10:19.548Z,92.65
2018-10-19T06:11:19.299Z,93.03
2018-10-19T06:12:19.553Z,93.12
2018-10-19T06:13:19.562Z,92.93
2018-10-19T06:14:19.313Z,92.84
2018-10-19T06:15:19.566Z,92.65
2018-10-19T06:16:19.571Z,92.84
2018-10-19T06:17:19.567Z,92.74
2018-10-19T06:18:19.569Z,93.03
2018-10-19T06:19:19.576Z,92.65
2018-10-19T06:20:19.844Z,93.12
2018-10-19T06:21:19.779Z,92.55
2018-10-19T06:22:19.642Z,92.93
2018-10-19T06:23:19.693Z,92.46
2018-10-19T06:24:19.589Z,92.46
2018-10-19T06:25:19.641Z,92.65
2018-10-19T06:26:19.628Z,92.84
2018-10-19T06:27:19.344Z,92.74
2018-10-19T06:28:19.349Z,92.93
2018-10-19T06:29:19.794Z,92.46
2018-10-19T06:30:19.609Z,92.84
2018-10-19T06:31:19.610Z,92.65
2018-10-19T06:32:19.803Z,92.55
2018-10-19T06:33:19.616Z,93.32
2018-10-19T06:34:19.620Z,93.22
2018-10-19T06:35:19.759Z,93.12
2018-10-19T06:36:19.371Z,92.84
2018-10-19T06:37:19.660Z,93.22
2018-10-19T06:38:19.765Z,92.69
2018-10-19T06:39:19.633Z,92.69
2018-10-19T06:40:19.690Z,92.03
2018-10-19T06:41:19.898Z,92.03
2018-10-19T06:42:19.389Z,92.03
2018-10-19T06:43:19.391Z,92.32
2018-10-19T06:44:19.863Z,92.6
2018-10-19T06:45:19.716Z,92.22
2018-10-19T06:46:19.654Z,92.32
2018-10-19T06:47:19.931Z,92.6
2018-10-19T06:48:19.664Z,92.69
2018-10-19T06:49:19.674Z,91.55
2018-10-19T06:50:19.798Z,91.64
2018-10-19T06:51:19.676Z,91.74
2018-10-19T06:52:19.686Z,91.27
2018-10-19T06:53:19.684Z,91.46
2018-10-19T06:54:19.432Z,91.31
2018-10-19T06:55:19.687Z,91.74
2018-10-19T06:56:19.742Z,91.69
2018-10-19T06:57:19.698Z,90.83
2018-10-19T06:58:19.446Z,90.83
2018-10-19T06:59:19.908Z,90.64
2018-10-19T07:00:19.709Z,90.45
2018-10-19T07:01:19.719Z,90.45
2018-10-19T07:02:19.872Z,90.83
2018-10-19T07:03:19.718Z,90.83
2018-10-19T07:04:19.807Z,90.93
2018-10-19T07:05:19.727Z,90.64
2018-10-19T07:06:19.954Z,90.83
2018-10-19T07:07:19.735Z,90.93
2018-10-19T07:08:19.794Z,90.45
2018-10-19T07:09:19.741Z,90.17
2018-10-19T07:10:19.780Z,90.36
2018-10-19T07:11:19.751Z,90.17
2018-10-19T07:12:19.618Z,89.88
2018-10-19T07:13:19.758Z,90.36
2018-10-19T07:14:19.505Z,89.97
2018-10-19T07:15:19.753Z,89.97
2018-10-19T07:16:19.754Z,90.36
2018-10-19T07:17:19.760Z,90.36
2018-10-19T07:18:19.777Z,90.26
2018-10-19T07:19:19.816Z,90.07
2018-10-19T07:20:19.780Z,90.55
2018-10-19T07:21:19.533Z,90.17
2018-10-19T07:22:19.793Z,90.36
2018-10-19T07:23:19.541Z,90.17
2018-10-19T07:24:19.801Z,90.36
2018-10-19T07:25:19.803Z,90.17
2018-10-19T07:26:19.814Z,90.36
2018-10-19T07:27:19.556Z,90.07
2018-10-19T07:28:19.830Z,90.26
2018-10-19T07:29:19.606Z,89.64
2018-10-19T07:30:19.823Z,89.92
2018-10-19T07:31:19.827Z,90.11
2018-10-19T07:32:19.830Z,89.73
2018-10-19T07:33:19.834Z,89.78
2018-10-19T07:34:19.839Z,89.73
2018-10-19T07:35:19.989Z,90.02
2018-10-19T07:36:19.921Z,89.35
2018-10-19T07:37:19.851Z,89.06
2018-10-19T07:38:19.653Z,89.35
2018-10-19T07:39:19.607Z,89.06
2018-10-19T07:40:19.612Z,88.78
2018-10-19T07:41:19.869Z,88.97
2018-10-19T07:42:19.720Z,88.97
2018-10-19T07:43:19.629Z,88.49
2018-10-19T07:44:19.891Z,88.49
2018-10-19T07:45:19.886Z,88.92
2018-10-19T07:46:19.894Z,87.92
2018-10-19T07:47:20.426Z,88.4
2018-10-19T07:48:20.007Z,88.4
2018-10-19T07:49:19.650Z,88.34
2018-10-19T07:50:19.657Z,88.15
2018-10-19T07:51:19.916Z,88.06
2018-10-19T07:52:19.931Z,87.87
2018-10-19T07:53:19.921Z,87.39
2018-10-19T07:54:20.191Z,87.48
2018-10-19T07:55:19.941Z,87.87
2018-10-19T07:56:20.093Z,87.39
2018-10-19T07:57:19.686Z,87.2
2018-10-19T07:58:19.960Z,87.1
2018-10-19T07:59:19.960Z,86.82
2018-10-19T08:00:20.170Z,86.47
2018-10-19T08:01:19.799Z,86.38
2018-10-19T08:02:19.974Z,86.19
2018-10-19T08:03:19.969Z,86.1
2018-10-19T08:04:20.032Z,86.1
2018-10-19T08:05:20.166Z,86.19
2018-10-19T08:06:19.984Z,85.71
2018-10-19T08:07:19.989Z,85.75
2018-10-19T08:08:19.995Z,84.99
2018-10-19T08:09:20.072Z,84.42
2018-10-19T08:10:19.998Z,84.52
2018-10-19T08:11:20.245Z,84.61
2018-10-19T08:12:20.015Z,84.61
2018-10-19T08:13:19.778Z,84.61
2018-10-19T08:14:19.765Z,84.7
2018-10-19T08:15:20.021Z,84.61
2018-10-19T08:16:19.774Z,84.23
2018-10-19T08:17:20.035Z,83.94
2018-10-19T08:18:20.036Z,83.6
2018-10-19T08:19:20.055Z,83.22
2018-10-19T08:20:20.369Z,83.4
2018-10-19T08:21:20.231Z,83.69
2018-10-19T08:22:19.814Z,83.4
2018-10-19T08:23:20.075Z,83.31
2018-10-19T08:24:20.130Z,83.4
2018-10-19T08:25:20.084Z,84.36
2018-10-19T08:26:20.224Z,84.75
2018-10-19T08:27:20.252Z,84.61
2018-10-19T08:28:20.100Z,84.55
2018-10-19T08:29:20.118Z,84.75
2018-10-19T08:30:20.108Z,84.36
2018-10-19T08:31:20.116Z,84.36
2018-10-19T08:32:20.121Z,83.98
2018-10-19T08:33:20.123Z,83.5
2018-10-19T08:34:20.183Z,82.83
2018-10-19T08:35:19.885Z,82.87
2018-10-19T08:36:20.142Z,82.3
2018-10-19T08:37:20.228Z,81.92
2018-10-19T08:38:20.190Z,82.01
2018-10-19T08:39:20.168Z,82.11
2018-10-19T08:40:20.165Z,81.44
2018-10-19T08:41:20.383Z,81.05
2018-10-19T08:42:20.178Z,80.96
2018-10-19T08:43:20.074Z,81.25
2018-10-19T08:44:20.187Z,80.58
2018-10-19T08:45:20.346Z,80.43
2018-10-19T08:46:20.198Z,80.77
2018-10-19T08:47:20.213Z,81.05
2018-10-19T08:48:20.216Z,81.73
2018-10-19T08:49:19.966Z,81.63
2018-10-19T08:50:20.225Z,81.25
2018-10-19T08:51:20.394Z,81.05
2018-10-19T08:52:20.035Z,81.25
2018-10-19T08:53:20.002Z,80.87
2018-10-19T08:54:19.993Z,80.96
2018-10-19T08:55:20.255Z,80.38
2018-10-19T08:56:20.263Z,80.58
2018-10-19T08:57:20.488Z,81
2018-10-19T08:58:20.098Z,80.62
2018-10-19T08:59:20.443Z,80.62
2018-10-19T09:00:20.033Z,80.04
2018-10-19T09:01:20.096Z,80.04
2018-10-19T09:02:20.301Z,79.57
2018-10-19T09:03:20.353Z,79.47
2018-10-19T09:04:20.311Z,79.37
2018-10-19T09:05:20.065Z,79.03
2018-10-19T09:06:20.325Z,78.93
2018-10-19T09:07:20.335Z,78.93
2018-10-19T09:08:20.337Z,78.17
2018-10-19T09:09:20.344Z,78.74
2018-10-19T09:10:20.097Z,78.45
2018-10-19T09:11:20.207Z,78.07
2018-10-19T09:12:20.367Z,78.17
2018-10-19T09:13:20.117Z,78.17
2018-10-19T09:14:20.377Z,78.07
2018-10-19T09:15:20.560Z,78.45
2018-10-19T09:16:20.141Z,78.07
2018-10-19T09:17:20.150Z,77.78
2018-10-19T09:18:20.452Z,77.5
2018-10-19T09:19:20.162Z,77.97
2018-10-19T09:20:20.413Z,78.07
2018-10-19T09:21:20.425Z,77.69
2018-10-19T09:22:20.429Z,77.69
2018-10-19T09:23:20.181Z,77.78
2018-10-19T09:24:20.188Z,78.36
2018-10-19T09:25:20.448Z,78.36
2018-10-19T09:26:20.459Z,77.97
2018-10-19T09:27:20.461Z,78.45
2018-10-19T09:28:20.469Z,78.36
2018-10-19T09:29:20.563Z,77.69
2018-10-19T09:30:20.480Z,77.69
2018-10-19T09:31:20.500Z,77.69
2018-10-19T09:32:20.494Z,77.69
2018-10-19T09:33:20.249Z,77.5
2018-10-19T09:34:20.511Z,77.5
2018-10-19T09:35:20.392Z,77.4
2018-10-19T09:36:21.057Z,77.59
2018-10-19T09:37:20.529Z,77.21
2018-10-19T09:38:20.330Z,77.11
2018-10-19T09:39:20.545Z,77.31
2018-10-19T09:40:20.817Z,77.06
2018-10-19T09:41:20.414Z,76.67
2018-10-19T09:42:20.565Z,76.48
2018-10-19T09:43:20.413Z,76.57
2018-10-19T09:44:20.575Z,76.96
2018-10-19T09:45:20.578Z,76.77
2018-10-19T09:46:20.585Z,76.67
2018-10-19T09:47:20.687Z,76.48
2018-10-19T09:48:20.601Z,76.39
2018-10-19T09:49:20.610Z,76.1
2018-10-19T09:50:20.621Z,76.29
2018-10-19T09:51:20.630Z,76
2018-10-19T09:52:20.635Z,75.37
2018-10-19T09:53:20.384Z,75.37
2018-10-19T09:54:20.391Z,75.56
2018-10-19T09:55:20.847Z,74.79
2018-10-19T09:56:21.009Z,75.08
2018-10-19T09:57:20.726Z,75.08
2018-10-19T09:58:20.682Z,74.44
2018-10-19T09:59:20.725Z,73.97
2018-10-19T10:00:20.683Z,73.97
2018-10-19T10:01:20.898Z,74.06
2018-10-19T10:02:20.746Z,72.91
2018-10-19T10:03:20.705Z,72.37
2018-10-19T10:04:20.709Z,72.37
2018-10-19T10:05:20.750Z,72.47
2018-10-19T10:06:20.729Z,72.66
2018-10-19T10:07:20.743Z,72.56
2018-10-19T10:08:20.496Z,71.7
2018-10-19T10:09:20.503Z,71.51
2018-10-19T10:10:20.765Z,70.97
2018-10-19T10:11:20.785Z,70.78
2018-10-19T10:12:20.778Z,70.68
2018-10-19T10:13:20.795Z,70.04
2018-10-19T10:14:20.801Z,68.54
2018-10-19T10:15:21.051Z,67.96
2018-10-19T10:16:20.817Z,67.22
2018-10-19T10:17:20.824Z,66.94
2018-10-19T10:18:20.829Z,66.84
2018-10-19T10:19:20.869Z,66.65
2018-10-19T10:20:20.913Z,65.72
2018-10-19T10:21:20.863Z,64.28
2018-10-19T10:22:20.870Z,64.66
2018-10-19T10:23:20.882Z,64.28
2018-10-19T10:24:20.901Z,64.56
2018-10-19T10:25:21.124Z,64.66
2018-10-19T10:26:20.908Z,63.82
2018-10-19T10:27:20.969Z,63.54
2018-10-19T10:28:20.930Z,63.25
2018-10-19T10:29:20.937Z,62.99
2018-10-19T10:30:20.956Z,62.03
2018-10-19T10:31:20.964Z,62.22
2018-10-19T10:32:21.083Z,61.83
2018-10-19T10:33:21.000Z,62.22
2018-10-19T10:34:21.000Z,62.38
2018-10-19T10:35:21.007Z,62.22
2018-10-19T10:36:20.765Z,61.74
2018-10-19T10:37:21.028Z,62
2018-10-19T10:38:21.039Z,61.83
2018-10-19T10:39:21.348Z,61.16
2018-10-19T10:40:21.199Z,60.9
2018-10-19T10:41:21.076Z,60.03
2018-10-19T10:42:21.084Z,60.13
2018-10-19T10:43:20.843Z,59
2018-10-19T10:44:20.857Z,59.48
2018-10-19T10:45:21.123Z,58.84
2018-10-19T10:46:20.879Z,58.07
2018-10-19T10:47:21.153Z,57.9
2018-10-19T10:48:21.154Z,57.52
2018-10-19T10:49:21.168Z,56.77
2018-10-19T10:50:21.179Z,56.39
2018-10-19T10:51:21.191Z,55.23
2018-10-19T10:52:21.204Z,55.42
2018-10-19T10:53:21.213Z,55.9
2018-10-19T10:54:21.233Z,55.81
2018-10-19T10:55:21.467Z,55.55
2018-10-19T10:56:21.244Z,54.97
2018-10-19T10:57:21.254Z,54.41
2018-10-19T10:58:21.025Z,54.03
2018-10-19T10:59:21.317Z,53.45
2018-10-19T11:00:21.046Z,53.09
2018-10-19T11:01:21.316Z,52.7
2018-10-19T11:02:21.071Z,52.51
2018-10-19T11:03:21.338Z,52.61
2018-10-19T11:04:21.406Z,52.22
2018-10-19T11:05:21.364Z,52.24
2018-10-19T11:06:21.127Z,51.56
2018-10-19T11:07:21.699Z,51.47
2018-10-19T11:08:21.162Z,50.72
2018-10-19T11:09:21.181Z,50.55
2018-10-19T11:10:21.447Z,49.58
2018-10-19T11:11:21.456Z,49.49
2018-10-19T11:12:21.466Z,49.22
2018-10-19T11:13:21.484Z,49.32
2018-10-19T11:14:21.507Z,48.93
2018-10-19T11:15:21.513Z,47.89
2018-10-19T11:16:21.547Z,47.69
2018-10-19T11:17:21.553Z,47.72
2018-10-19T11:18:21.559Z,47.4
2018-10-19T11:19:21.570Z,47.3
2018-10-19T11:20:21.331Z,47.81
2018-10-19T11:21:21.346Z,46.84
2018-10-19T11:22:21.867Z,46.86
2018-10-19T11:23:21.636Z,46.19
2018-10-19T11:24:21.392Z,46.01
2018-10-19T11:25:21.410Z,45.82
2018-10-19T11:26:21.679Z,45.26
2018-10-19T11:27:21.693Z,44.87
2018-10-19T11:28:21.478Z,44.21
2018-10-19T11:29:21.471Z,44.31
2018-10-19T11:30:21.756Z,44.41
2018-10-19T11:31:21.501Z,44.21
2018-10-19T11:32:21.776Z,43.82
2018-10-19T11:33:21.795Z,43.75
2018-10-19T11:34:21.811Z,42.97
2018-10-19T11:35:21.823Z,42.9
2018-10-19T11:36:21.591Z,41.93
2018-10-19T11:37:22.085Z,42.33
2018-10-19T11:38:21.869Z,42.21
2018-10-19T11:39:21.886Z,42.31
2018-10-19T11:40:21.650Z,42.21
2018-10-19T11:41:21.669Z,42.02
2018-10-19T11:42:21.938Z,42.31
2018-10-19T11:43:22.033Z,42.04
2018-10-19T11:44:21.997Z,41.65
2018-10-19T11:45:22.000Z,41.19
2018-10-19T11:46:21.754Z,40.99
2018-10-19T11:47:21.770Z,40.23
2018-10-19T11:48:22.042Z,39.96
2018-10-19T11:49:22.012Z,38.98
2018-10-19T11:50:22.083Z,38.98
2018-10-19T11:51:22.093Z,39
2018-10-19T11:52:21.861Z,38.61
2018-10-19T11:53:21.927Z,38.81
2018-10-19T11:54:21.898Z,38.71
2018-10-19T11:55:21.915Z,39.08
2018-10-19T11:56:22.188Z,39.08
2018-10-19T11:57:22.204Z,39.08
2018-10-19T11:58:21.969Z,39.57
2018-10-19T11:59:22.237Z,40.23
2018-10-19T12:00:22.266Z,40.13
2018-10-19T12:01:22.280Z,39.94
2018-10-19T12:02:22.043Z,39.57
2018-10-19T12:03:22.389Z,39.37
2018-10-19T12:04:22.367Z,39.08
2018-10-19T12:05:22.365Z,39.18
2018-10-19T12:06:22.373Z,38.9
2018-10-19T12:07:22.392Z,38.9
2018-10-19T12:08:22.413Z,38.34
2018-10-19T12:09:22.173Z,37.95
2018-10-19T12:10:22.453Z,37.38
2018-10-19T12:11:22.467Z,37.67
2018-10-19T12:12:22.235Z,37.57
2018-10-19T12:13:22.507Z,36.8
2018-10-19T12:14:22.527Z,36.93
2018-10-19T12:15:22.548Z,36.54
2018-10-19T12:16:22.815Z,36.34
2018-10-19T12:17:22.579Z,36.63
2018-10-19T12:18:22.598Z,36.63
2018-10-19T12:19:22.362Z,36.15
2018-10-19T12:20:22.394Z,35.87
2018-10-19T12:21:22.806Z,36.44
2018-10-19T12:22:22.680Z,36.15
2018-10-19T12:23:22.748Z,36.05
2018-10-19T12:24:22.714Z,36.15
2018-10-19T12:25:22.480Z,35.97
2018-10-19T12:26:22.754Z,35.48
2018-10-19T12:27:22.774Z,35.3
2018-10-19T12:28:22.548Z,35.21
2018-10-19T12:29:22.815Z,35.3
2018-10-19T12:30:22.846Z,35.4
2018-10-19T12:31:22.599Z,35.01
2018-10-19T12:32:22.617Z,34.93
2018-10-19T12:33:22.889Z,34.72
2018-10-19T12:34:22.911Z,34.64
2018-10-19T12:35:22.995Z,34.74
2018-10-19T12:36:22.951Z,34.64
2018-10-19T12:37:22.971Z,34.74
2018-10-19T12:38:22.739Z,34.62
2018-10-19T12:39:23.016Z,34.91
2018-10-19T12:40:23.033Z,34.52
2018-10-19T12:41:23.050Z,34.52
2018-10-19T12:42:23.072Z,34.62
2018-10-19T12:43:23.155Z,34.24
2018-10-19T12:44:23.113Z,34.44
2018-10-19T12:45:22.881Z,34.05
2018-10-19T12:46:22.900Z,34.26
2018-10-19T12:47:23.350Z,33.95
2018-10-19T12:48:23.193Z,34.05
2018-10-19T12:49:23.222Z,33.48
2018-10-19T12:50:22.981Z,33.28
2018-10-19T12:51:23.252Z,33.09
2018-10-19T12:52:23.273Z,33.36
2018-10-19T12:53:23.316Z,33.46
2018-10-19T12:54:23.561Z,33.36
2018-10-19T12:55:23.345Z,33.17